sensor_id;sensor_type;location;lat;lon;timestamp;P1;durP1;ratioP1;P2;durP2;ratioP2
37169;SDS011;23062;13.952;100.608;2023-01-19T00:02:16;2617.00;;;1992.00;;
37169;SDS011;23062;13.952;100.608;2023-01-19T00:06:43;2673.00;;;1992.00;;
37169;SDS011;23062;13.952;100.608;2023-01-19T00:11:09;2585.00;;;1859.20;;
37169;SDS011;23062;13.952;100.608;2023-01-19T00:15:37;2608.00;;;1992.00;;
37169;SDS011;23062;13.952;100.608;2023-01-19T00:20:04;2496.00;;;1993.00;;
37169;SDS011;23062;13.952;100.608;2023-01-19T00:24:32;2676.00;;;1993.00;;
37169;SDS011;23062;13.952;100.608;2023-01-19T00:28:58;2634.00;;;1992.00;;
37169;SDS011;23062;13.952;100.608;2023-01-19T00:33:31;2570.00;;;1993.00;;
37169;SDS011;23062;13.952;100.608;2023-01-19T00:37:59;2632.00;;;1993.00;;
37169;SDS011;23062;13.952;100.608;2023-01-19T00:42:31;2596.00;;;1993.00;;
37169;SDS011;23062;13.952;100.608;2023-01-19T00:47:06;2570.00;;;1992.00;;
37169;SDS011;23062;13.952;100.608;2023-01-19T00:51:33;2567.00;;;1992.00;;
37169;SDS011;23062;13.952;100.608;2023-01-19T00:56:01;2607.00;;;1992.00;;
37169;SDS011;23062;13.952;100.608;2023-01-19T01:00:30;2636.00;;;1992.00;;
37169;SDS011;23062;13.952;100.608;2023-01-19T01:04:56;2563.00;;;1992.00;;
37169;SDS011;23062;13.952;100.608;2023-01-19T01:09:24;2602.00;;;1992.00;;
37169;SDS011;23062;13.952;100.608;2023-01-19T01:13:51;2659.00;;;1992.00;;
37169;SDS011;23062;13.952;100.608;2023-01-19T01:18:18;2514.00;;;1993.00;;
37169;SDS011;23062;13.952;100.608;2023-01-19T01:22:45;2502.00;;;1992.00;;
37169;SDS011;23062;13.952;100.608;2023-01-19T01:27:13;2528.00;;;1993.00;;
37169;SDS011;23062;13.952;100.608;2023-01-19T01:31:40;2527.00;;;1992.00;;
37169;SDS011;23062;13.952;100.608;2023-01-19T01:36:07;2646.00;;;1992.00;;
37169;SDS011;23062;13.952;100.608;2023-01-19T01:40:38;2512.00;;;1992.00;;
37169;SDS011;23062;13.952;100.608;2023-01-19T01:45:32;2608.00;;;1992.00;;
37169;SDS011;23062;13.952;100.608;2023-01-19T01:49:53;2524.00;;;1992.00;;
37169;SDS011;23062;13.952;100.608;2023-01-19T01:54:27;2644.00;;;1993.00;;
37169;SDS011;23062;13.952;100.608;2023-01-19T01:58:55;2651.00;;;1992.00;;
37169;SDS011;23062;13.952;100.608;2023-01-19T02:03:22;2529.00;;;1992.00;;
37169;SDS011;23062;13.952;100.608;2023-01-19T02:07:56;2654.00;;;1992.00;;
37169;SDS011;23062;13.952;100.608;2023-01-19T02:12:40;2646.00;;;1992.00;;
37169;SDS011;23062;13.952;100.608;2023-01-19T02:17:23;2605.00;;;1992.00;;
37169;SDS011;23062;13.952;100.608;2023-01-19T02:21:58;1282.00;;;1025.00;;
37169;SDS011;23062;13.952;100.608;2023-01-19T02:30:58;1574.00;;;1202.00;;
37169;SDS011;23062;13.952;100.608;2023-01-19T02:35:25;1629.00;;;1289.00;;
37169;SDS011;23062;13.952;100.608;2023-01-19T02:39:53;1357.00;;;1072.00;;
37169;SDS011;23062;13.952;100.608;2023-01-19T02:44:20;42.00;;;33.00;;
37169;SDS011;23062;13.952;100.608;2023-01-19T02:48:48;60.00;;;45.00;;
37169;SDS011;23062;13.952;100.608;2023-01-19T03:17:10;22.00;;;17.00;;
37169;SDS011;23062;13.952;100.608;2023-01-19T03:21:39;34.00;;;26.00;;
37169;SDS011;23062;13.952;100.608;2023-01-19T03:26:12;27.00;;;19.00;;
37169;SDS011;23062;13.952;100.608;2023-01-19T03:30:48;25.00;;;18.00;;
37169;SDS011;23062;13.952;100.608;2023-01-19T03:35:15;22.00;;;17.00;;
37169;SDS011;23062;13.952;100.608;2023-01-19T03:39:45;22.00;;;17.00;;
37169;SDS011;23062;13.952;100.608;2023-01-19T03:44:15;22.00;;;16.00;;
37169;SDS011;23062;13.952;100.608;2023-01-19T03:48:42;18.00;;;14.00;;
37169;SDS011;23062;13.952;100.608;2023-01-19T03:53:11;21.00;;;16.00;;
37169;SDS011;23062;13.952;100.608;2023-01-19T03:57:39;20.00;;;14.00;;
37169;SDS011;23062;13.952;100.608;2023-01-19T04:02:06;17.00;;;12.00;;
37169;SDS011;23062;13.952;100.608;2023-01-19T04:06:34;14.00;;;11.00;;
37169;SDS011;23062;13.952;100.608;2023-01-19T04:11:00;16.00;;;11.00;;
37169;SDS011;23062;13.952;100.608;2023-01-19T04:15:27;14.00;;;10.00;;
37169;SDS011;23062;13.952;100.608;2023-01-19T04:19:54;13.00;;;9.00;;
37169;SDS011;23062;13.952;100.608;2023-01-19T04:24:21;14.00;;;10.00;;
37169;SDS011;23062;13.952;100.608;2023-01-19T04:28:47;14.00;;;10.00;;
37169;SDS011;23062;13.952;100.608;2023-01-19T04:33:14;13.00;;;10.00;;
37169;SDS011;23062;13.952;100.608;2023-01-19T04:37:41;12.00;;;9.00;;
37169;SDS011;23062;13.952;100.608;2023-01-19T04:42:08;12.00;;;8.00;;
37169;SDS011;23062;13.952;100.608;2023-01-19T04:46:34;14.00;;;11.00;;
37169;SDS011;23062;13.952;100.608;2023-01-19T04:51:01;12.00;;;9.00;;
37169;SDS011;23062;13.952;100.608;2023-01-19T04:55:28;11.00;;;8.00;;
37169;SDS011;23062;13.952;100.608;2023-01-19T04:59:55;14.00;;;10.00;;
37169;SDS011;23062;13.952;100.608;2023-01-19T05:04:22;12.00;;;8.00;;
37169;SDS011;23062;13.952;100.608;2023-01-19T05:08:49;13.00;;;9.00;;
37169;SDS011;23062;13.952;100.608;2023-01-19T05:13:16;13.00;;;9.00;;
37169;SDS011;23062;13.952;100.608;2023-01-19T05:17:42;12.00;;;8.00;;
37169;SDS011;23062;13.952;100.608;2023-01-19T05:22:09;12.00;;;8.00;;
37169;SDS011;23062;13.952;100.608;2023-01-19T05:26:37;10.00;;;7.00;;
37169;SDS011;23062;13.952;100.608;2023-01-19T05:31:03;12.00;;;9.00;;
37169;SDS011;23062;13.952;100.608;2023-01-19T05:35:30;9.00;;;7.00;;
37169;SDS011;23062;13.952;100.608;2023-01-19T05:39:57;11.00;;;8.00;;
37169;SDS011;23062;13.952;100.608;2023-01-19T05:44:24;12.00;;;8.00;;
37169;SDS011;23062;13.952;100.608;2023-01-19T05:48:50;13.00;;;9.00;;
37169;SDS011;23062;13.952;100.608;2023-01-19T05:53:17;10.00;;;7.00;;
37169;SDS011;23062;13.952;100.608;2023-01-19T05:57:43;9.00;;;7.00;;
37169;SDS011;23062;13.952;100.608;2023-01-19T06:02:14;10.00;;;7.00;;
37169;SDS011;23062;13.952;100.608;2023-01-19T06:06:41;11.00;;;8.00;;
37169;SDS011;23062;13.952;100.608;2023-01-19T06:11:08;11.00;;;8.00;;
37169;SDS011;23062;13.952;100.608;2023-01-19T06:15:34;11.00;;;8.00;;
37169;SDS011;23062;13.952;100.608;2023-01-19T06:20:01;14.00;;;11.00;;
37169;SDS011;23062;13.952;100.608;2023-01-19T06:24:28;11.00;;;8.00;;
37169;SDS011;23062;13.952;100.608;2023-01-19T06:28:55;11.00;;;8.00;;
37169;SDS011;23062;13.952;100.608;2023-01-19T06:33:22;10.00;;;7.00;;
37169;SDS011;23062;13.952;100.608;2023-01-19T06:37:51;10.00;;;7.00;;
37169;SDS011;23062;13.952;100.608;2023-01-19T06:42:18;10.00;;;7.00;;
37169;SDS011;23062;13.952;100.608;2023-01-19T06:46:45;13.00;;;9.00;;
37169;SDS011;23062;13.952;100.608;2023-01-19T06:51:11;12.00;;;8.00;;
37169;SDS011;23062;13.952;100.608;2023-01-19T06:55:38;10.00;;;7.00;;
37169;SDS011;23062;13.952;100.608;2023-01-19T07:00:05;10.00;;;7.00;;
37169;SDS011;23062;13.952;100.608;2023-01-19T07:04:32;9.00;;;7.00;;
37169;SDS011;23062;13.952;100.608;2023-01-19T07:08:59;9.00;;;6.00;;
37169;SDS011;23062;13.952;100.608;2023-01-19T07:13:27;11.00;;;8.00;;
37169;SDS011;23062;13.952;100.608;2023-01-19T07:17:56;10.00;;;7.00;;
37169;SDS011;23062;13.952;100.608;2023-01-19T07:22:25;12.00;;;8.00;;
37169;SDS011;23062;13.952;100.608;2023-01-19T07:26:52;13.00;;;9.00;;
37169;SDS011;23062;13.952;100.608;2023-01-19T07:31:19;8.00;;;6.00;;
37169;SDS011;23062;13.952;100.608;2023-01-19T07:35:45;11.00;;;8.00;;
37169;SDS011;23062;13.952;100.608;2023-01-19T07:40:13;11.00;;;8.00;;
37169;SDS011;23062;13.952;100.608;2023-01-19T07:44:41;10.00;;;7.00;;
37169;SDS011;23062;13.952;100.608;2023-01-19T07:49:07;12.00;;;8.00;;
37169;SDS011;23062;13.952;100.608;2023-01-19T07:53:35;11.00;;;8.00;;
37169;SDS011;23062;13.952;100.608;2023-01-19T07:58:02;13.00;;;9.00;;
37169;SDS011;23062;13.952;100.608;2023-01-19T08:02:30;15.00;;;11.00;;
37169;SDS011;23062;13.952;100.608;2023-01-19T08:06:58;12.00;;;8.00;;
37169;SDS011;23062;13.952;100.608;2023-01-19T08:11:24;11.00;;;7.00;;
37169;SDS011;23062;13.952;100.608;2023-01-19T08:15:51;8.00;;;6.00;;
37169;SDS011;23062;13.952;100.608;2023-01-19T08:20:21;11.00;;;8.00;;
37169;SDS011;23062;13.952;100.608;2023-01-19T08:24:48;13.00;;;9.00;;
37169;SDS011;23062;13.952;100.608;2023-01-19T08:29:16;7.00;;;5.00;;
37169;SDS011;23062;13.952;100.608;2023-01-19T08:33:43;8.00;;;6.00;;
37169;SDS011;23062;13.952;100.608;2023-01-19T08:38:09;11.00;;;8.00;;
37169;SDS011;23062;13.952;100.608;2023-01-19T08:42:36;11.00;;;8.00;;
37169;SDS011;23062;13.952;100.608;2023-01-19T08:47:03;11.00;;;7.00;;
37169;SDS011;23062;13.952;100.608;2023-01-19T08:51:31;12.00;;;8.00;;
37169;SDS011;23062;13.952;100.608;2023-01-19T08:55:57;10.00;;;7.00;;
37169;SDS011;23062;13.952;100.608;2023-01-19T09:00:25;13.00;;;9.00;;
37169;SDS011;23062;13.952;100.608;2023-01-19T09:04:53;10.00;;;7.00;;
37169;SDS011;23062;13.952;100.608;2023-01-19T09:09:19;15.00;;;11.00;;
37169;SDS011;23062;13.952;100.608;2023-01-19T09:13:46;16.00;;;12.00;;
37169;SDS011;23062;13.952;100.608;2023-01-19T09:18:14;14.00;;;10.00;;
37169;SDS011;23062;13.952;100.608;2023-01-19T09:22:41;15.00;;;11.00;;
37169;SDS011;23062;13.952;100.608;2023-01-19T09:27:08;15.00;;;10.00;;
37169;SDS011;23062;13.952;100.608;2023-01-19T09:31:35;15.00;;;11.00;;
37169;SDS011;23062;13.952;100.608;2023-01-19T09:36:03;12.00;;;9.00;;
37169;SDS011;23062;13.952;100.608;2023-01-19T09:40:31;12.00;;;8.00;;
37169;SDS011;23062;13.952;100.608;2023-01-19T09:44:59;14.00;;;10.00;;
37169;SDS011;23062;13.952;100.608;2023-01-19T09:49:30;14.00;;;10.00;;
37169;SDS011;23062;13.952;100.608;2023-01-19T09:54:12;18.00;;;13.00;;
37169;SDS011;23062;13.952;100.608;2023-01-19T09:58:50;13.00;;;10.00;;
37169;SDS011;23062;13.952;100.608;2023-01-19T10:03:17;14.00;;;10.00;;
37169;SDS011;23062;13.952;100.608;2023-01-19T10:07:51;13.00;;;9.00;;
37169;SDS011;23062;13.952;100.608;2023-01-19T10:12:20;13.00;;;9.00;;
37169;SDS011;23062;13.952;100.608;2023-01-19T10:21:37;9.00;;;7.00;;
37169;SDS011;23062;13.952;100.608;2023-01-19T10:26:05;12.00;;;8.00;;
37169;SDS011;23062;13.952;100.608;2023-01-19T10:30:35;11.00;;;8.00;;
37169;SDS011;23062;13.952;100.608;2023-01-19T10:35:05;9.00;;;7.00;;
37169;SDS011;23062;13.952;100.608;2023-01-19T10:39:32;8.00;;;6.00;;
37169;SDS011;23062;13.952;100.608;2023-01-19T10:44:02;8.00;;;6.00;;
37169;SDS011;23062;13.952;100.608;2023-01-19T10:48:38;9.00;;;6.00;;
37169;SDS011;23062;13.952;100.608;2023-01-19T10:53:05;10.00;;;7.00;;
37169;SDS011;23062;13.952;100.608;2023-01-19T10:57:35;9.00;;;6.00;;
37169;SDS011;23062;13.952;100.608;2023-01-19T11:07:03;7.00;;;5.00;;
37169;SDS011;23062;13.952;100.608;2023-01-19T11:11:25;8.00;;;5.00;;
37169;SDS011;23062;13.952;100.608;2023-01-19T11:15:55;9.00;;;7.00;;
37169;SDS011;23062;13.952;100.608;2023-01-19T11:20:24;9.00;;;6.00;;
37169;SDS011;23062;13.952;100.608;2023-01-19T11:24:52;9.00;;;6.00;;
37169;SDS011;23062;13.952;100.608;2023-01-19T11:29:24;8.00;;;6.00;;
37169;SDS011;23062;13.952;100.608;2023-01-19T11:33:52;9.00;;;6.00;;
37169;SDS011;23062;13.952;100.608;2023-01-19T11:38:20;10.00;;;7.00;;
37169;SDS011;23062;13.952;100.608;2023-01-19T11:42:48;9.00;;;6.00;;
37169;SDS011;23062;13.952;100.608;2023-01-19T11:47:26;7.00;;;5.00;;
37169;SDS011;23062;13.952;100.608;2023-01-19T11:52:01;10.00;;;7.00;;
37169;SDS011;23062;13.952;100.608;2023-01-19T11:56:27;8.00;;;6.00;;
37169;SDS011;23062;13.952;100.608;2023-01-19T12:05:47;9.00;;;6.00;;
37169;SDS011;23062;13.952;100.608;2023-01-19T12:14:54;10.00;;;7.00;;
37169;SDS011;23062;13.952;100.608;2023-01-19T12:33:36;8.00;;;5.00;;
37169;SDS011;23062;13.952;100.608;2023-01-19T12:38:20;7.00;;;5.00;;
37169;SDS011;23062;13.952;100.608;2023-01-19T12:42:33;7.00;;;5.00;;
37169;SDS011;23062;13.952;100.608;2023-01-19T12:47:21;1191.00;;;868.93;;
37169;SDS011;23062;13.952;100.608;2023-01-19T12:51:42;7.00;;;5.00;;
37169;SDS011;23062;13.952;100.608;2023-01-19T12:56:09;5.00;;;4.00;;
37169;SDS011;23062;13.952;100.608;2023-01-19T13:00:40;8.00;;;6.00;;
37169;SDS011;23062;13.952;100.608;2023-01-19T13:05:15;8.00;;;5.00;;
37169;SDS011;23062;13.952;100.608;2023-01-19T13:09:43;8.00;;;5.00;;
37169;SDS011;23062;13.952;100.608;2023-01-19T13:28:17;7.00;;;5.00;;
37169;SDS011;23062;13.952;100.608;2023-01-19T13:32:46;10.00;;;7.00;;
37169;SDS011;23062;13.952;100.608;2023-01-19T13:37:19;7.00;;;5.00;;
37169;SDS011;23062;13.952;100.608;2023-01-19T13:41:46;8.00;;;5.00;;
37169;SDS011;23062;13.952;100.608;2023-01-19T13:46:15;9.00;;;6.00;;
37169;SDS011;23062;13.952;100.608;2023-01-19T13:50:55;7.00;;;5.00;;
37169;SDS011;23062;13.952;100.608;2023-01-19T13:55:21;7.00;;;5.00;;
37169;SDS011;23062;13.952;100.608;2023-01-19T14:04:38;9.00;;;6.00;;
37169;SDS011;23062;13.952;100.608;2023-01-19T14:09:12;9.00;;;7.00;;
37169;SDS011;23062;13.952;100.608;2023-01-19T14:13:35;10.00;;;7.00;;
37169;SDS011;23062;13.952;100.608;2023-01-19T14:22:45;10.00;;;7.00;;
37169;SDS011;23062;13.952;100.608;2023-01-19T14:31:48;8.00;;;5.00;;
37169;SDS011;23062;13.952;100.608;2023-01-19T14:36:36;11.00;;;8.00;;
37169;SDS011;23062;13.952;100.608;2023-01-19T14:41:04;9.00;;;7.00;;
37169;SDS011;23062;13.952;100.608;2023-01-19T14:50:02;11.00;;;8.00;;
37169;SDS011;23062;13.952;100.608;2023-01-19T14:54:45;10.00;;;7.00;;
37169;SDS011;23062;13.952;100.608;2023-01-19T14:59:13;12.00;;;8.00;;
37169;SDS011;23062;13.952;100.608;2023-01-19T15:03:39;8.00;;;6.00;;
37169;SDS011;23062;13.952;100.608;2023-01-19T15:08:06;11.00;;;7.00;;
37169;SDS011;23062;13.952;100.608;2023-01-19T15:12:34;9.00;;;7.00;;
37169;SDS011;23062;13.952;100.608;2023-01-19T15:17:01;14.00;;;10.00;;
37169;SDS011;23062;13.952;100.608;2023-01-19T15:21:27;13.00;;;9.00;;
37169;SDS011;23062;13.952;100.608;2023-01-19T15:25:57;12.00;;;9.00;;
37169;SDS011;23062;13.952;100.608;2023-01-19T15:30:23;11.00;;;8.00;;
37169;SDS011;23062;13.952;100.608;2023-01-19T15:34:53;16.00;;;11.00;;
37169;SDS011;23062;13.952;100.608;2023-01-19T15:39:20;1355.00;;;942.67;;
37169;SDS011;23062;13.952;100.608;2023-01-19T15:43:46;15.00;;;11.00;;
37169;SDS011;23062;13.952;100.608;2023-01-19T15:48:13;15.00;;;10.00;;
37169;SDS011;23062;13.952;100.608;2023-01-19T15:52:39;13.00;;;10.00;;
37169;SDS011;23062;13.952;100.608;2023-01-19T15:57:07;14.00;;;11.00;;
37169;SDS011;23062;13.952;100.608;2023-01-19T16:01:34;16.00;;;12.00;;
37169;SDS011;23062;13.952;100.608;2023-01-19T16:06:01;15.00;;;11.00;;
37169;SDS011;23062;13.952;100.608;2023-01-19T16:10:27;15.00;;;11.00;;
37169;SDS011;23062;13.952;100.608;2023-01-19T16:14:54;15.00;;;11.00;;
37169;SDS011;23062;13.952;100.608;2023-01-19T16:19:21;16.00;;;11.00;;
37169;SDS011;23062;13.952;100.608;2023-01-19T16:23:48;12.00;;;9.00;;
37169;SDS011;23062;13.952;100.608;2023-01-19T16:28:14;14.00;;;11.00;;
37169;SDS011;23062;13.952;100.608;2023-01-19T16:32:41;15.00;;;11.00;;
37169;SDS011;23062;13.952;100.608;2023-01-19T16:37:08;16.00;;;11.00;;
37169;SDS011;23062;13.952;100.608;2023-01-19T16:41:35;13.00;;;10.00;;
37169;SDS011;23062;13.952;100.608;2023-01-19T16:46:01;13.00;;;9.00;;
37169;SDS011;23062;13.952;100.608;2023-01-19T16:50:30;16.00;;;11.00;;
37169;SDS011;23062;13.952;100.608;2023-01-19T16:54:57;17.00;;;12.00;;
37169;SDS011;23062;13.952;100.608;2023-01-19T16:59:24;13.00;;;10.00;;
37169;SDS011;23062;13.952;100.608;2023-01-19T17:03:51;17.00;;;12.00;;
37169;SDS011;23062;13.952;100.608;2023-01-19T17:08:19;14.00;;;10.00;;
37169;SDS011;23062;13.952;100.608;2023-01-19T17:12:46;14.00;;;11.00;;
37169;SDS011;23062;13.952;100.608;2023-01-19T17:17:13;15.00;;;11.00;;
37169;SDS011;23062;13.952;100.608;2023-01-19T17:21:39;12.00;;;9.00;;
37169;SDS011;23062;13.952;100.608;2023-01-19T17:26:07;16.00;;;11.00;;
37169;SDS011;23062;13.952;100.608;2023-01-19T17:30:33;14.00;;;11.00;;
37169;SDS011;23062;13.952;100.608;2023-01-19T17:35:00;13.00;;;10.00;;
37169;SDS011;23062;13.952;100.608;2023-01-19T17:39:26;12.00;;;9.00;;
37169;SDS011;23062;13.952;100.608;2023-01-19T17:43:53;15.00;;;10.00;;
37169;SDS011;23062;13.952;100.608;2023-01-19T17:48:20;14.00;;;10.00;;
37169;SDS011;23062;13.952;100.608;2023-01-19T17:52:47;15.00;;;11.00;;
37169;SDS011;23062;13.952;100.608;2023-01-19T17:57:14;15.00;;;11.00;;
37169;SDS011;23062;13.952;100.608;2023-01-19T18:01:40;16.00;;;11.00;;
37169;SDS011;23062;13.952;100.608;2023-01-19T18:06:08;14.00;;;11.00;;
37169;SDS011;23062;13.952;100.608;2023-01-19T18:10:35;14.00;;;10.00;;
37169;SDS011;23062;13.952;100.608;2023-01-19T18:15:02;10.00;;;8.00;;
37169;SDS011;23062;13.952;100.608;2023-01-19T18:19:30;12.00;;;9.00;;
37169;SDS011;23062;13.952;100.608;2023-01-19T18:24:00;16.00;;;12.00;;
37169;SDS011;23062;13.952;100.608;2023-01-19T18:28:28;14.00;;;11.00;;
37169;SDS011;23062;13.952;100.608;2023-01-19T18:32:55;17.00;;;12.00;;
37169;SDS011;23062;13.952;100.608;2023-01-19T18:37:22;13.00;;;10.00;;
37169;SDS011;23062;13.952;100.608;2023-01-19T18:41:49;13.00;;;10.00;;
37169;SDS011;23062;13.952;100.608;2023-01-19T18:46:16;17.00;;;12.00;;
37169;SDS011;23062;13.952;100.608;2023-01-19T18:50:43;17.00;;;13.00;;
37169;SDS011;23062;13.952;100.608;2023-01-19T18:55:10;19.00;;;14.00;;
37169;SDS011;23062;13.952;100.608;2023-01-19T18:59:37;18.00;;;13.00;;
37169;SDS011;23062;13.952;100.608;2023-01-19T19:04:08;15.00;;;11.00;;
37169;SDS011;23062;13.952;100.608;2023-01-19T19:08:34;15.00;;;11.00;;
37169;SDS011;23062;13.952;100.608;2023-01-19T19:13:01;19.00;;;14.00;;
37169;SDS011;23062;13.952;100.608;2023-01-19T19:17:28;17.00;;;13.00;;
37169;SDS011;23062;13.952;100.608;2023-01-19T19:21:55;17.00;;;12.00;;
37169;SDS011;23062;13.952;100.608;2023-01-19T19:26:22;15.00;;;11.00;;
37169;SDS011;23062;13.952;100.608;2023-01-19T19:31:09;18.00;;;14.00;;
37169;SDS011;23062;13.952;100.608;2023-01-19T19:35:36;19.00;;;13.00;;
37169;SDS011;23062;13.952;100.608;2023-01-19T19:40:03;20.00;;;15.00;;
37169;SDS011;23062;13.952;100.608;2023-01-19T19:44:30;16.00;;;12.00;;
37169;SDS011;23062;13.952;100.608;2023-01-19T19:48:57;15.00;;;12.00;;
37169;SDS011;23062;13.952;100.608;2023-01-19T19:53:24;18.00;;;13.00;;
37169;SDS011;23062;13.952;100.608;2023-01-19T19:57:50;17.00;;;12.00;;
37169;SDS011;23062;13.952;100.608;2023-01-19T20:02:17;1234.00;;;894.13;;
37169;SDS011;23062;13.952;100.608;2023-01-19T20:06:44;21.00;;;15.00;;
37169;SDS011;23062;13.952;100.608;2023-01-19T20:11:12;16.00;;;11.00;;
37169;SDS011;23062;13.952;100.608;2023-01-19T20:15:39;19.00;;;14.00;;
37169;SDS011;23062;13.952;100.608;2023-01-19T20:20:06;19.00;;;15.00;;
37169;SDS011;23062;13.952;100.608;2023-01-19T20:24:34;21.00;;;15.00;;
37169;SDS011;23062;13.952;100.608;2023-01-19T20:29:02;18.00;;;13.00;;
37169;SDS011;23062;13.952;100.608;2023-01-19T20:33:33;19.00;;;13.00;;
37169;SDS011;23062;13.952;100.608;2023-01-19T20:37:59;20.00;;;14.00;;
37169;SDS011;23062;13.952;100.608;2023-01-19T20:42:25;15.00;;;11.00;;
37169;SDS011;23062;13.952;100.608;2023-01-19T20:46:52;20.00;;;14.00;;
37169;SDS011;23062;13.952;100.608;2023-01-19T20:51:19;21.00;;;15.00;;
37169;SDS011;23062;13.952;100.608;2023-01-19T20:55:46;17.00;;;13.00;;
37169;SDS011;23062;13.952;100.608;2023-01-19T21:00:13;1211.00;;;866.13;;
37169;SDS011;23062;13.952;100.608;2023-01-19T21:04:40;21.00;;;16.00;;
37169;SDS011;23062;13.952;100.608;2023-01-19T21:09:10;18.00;;;14.00;;
37169;SDS011;23062;13.952;100.608;2023-01-19T21:13:36;17.00;;;12.00;;
37169;SDS011;23062;13.952;100.608;2023-01-19T21:18:03;17.00;;;13.00;;
37169;SDS011;23062;13.952;100.608;2023-01-19T21:22:30;19.00;;;14.00;;
37169;SDS011;23062;13.952;100.608;2023-01-19T21:26:56;20.00;;;15.00;;
37169;SDS011;23062;13.952;100.608;2023-01-19T21:31:23;20.00;;;14.00;;
37169;SDS011;23062;13.952;100.608;2023-01-19T21:35:53;21.00;;;15.00;;
37169;SDS011;23062;13.952;100.608;2023-01-19T21:40:21;21.00;;;16.00;;
37169;SDS011;23062;13.952;100.608;2023-01-19T21:44:48;19.00;;;14.00;;
37169;SDS011;23062;13.952;100.608;2023-01-19T21:49:17;18.00;;;13.00;;
37169;SDS011;23062;13.952;100.608;2023-01-19T21:53:48;22.00;;;17.00;;
37169;SDS011;23062;13.952;100.608;2023-01-19T21:58:16;16.00;;;12.00;;
37169;SDS011;23062;13.952;100.608;2023-01-19T22:02:42;20.00;;;14.00;;
37169;SDS011;23062;13.952;100.608;2023-01-19T22:07:09;16.00;;;11.00;;
37169;SDS011;23062;13.952;100.608;2023-01-19T22:11:35;16.00;;;12.00;;
37169;SDS011;23062;13.952;100.608;2023-01-19T22:16:01;39.00;;;29.00;;
37169;SDS011;23062;13.952;100.608;2023-01-19T22:20:29;37.00;;;29.00;;
37169;SDS011;23062;13.952;100.608;2023-01-19T22:24:53;34.00;;;27.00;;
37169;SDS011;23062;13.952;100.608;2023-01-19T22:29:18;32.00;;;24.00;;
37169;SDS011;23062;13.952;100.608;2023-01-19T22:33:43;30.00;;;23.00;;
37169;SDS011;23062;13.952;100.608;2023-01-19T22:38:07;37.00;;;27.00;;
37169;SDS011;23062;13.952;100.608;2023-01-19T22:42:32;33.00;;;26.00;;
37169;SDS011;23062;13.952;100.608;2023-01-19T22:46:57;34.00;;;26.00;;
37169;SDS011;23062;13.952;100.608;2023-01-19T22:51:21;37.00;;;27.00;;
37169;SDS011;23062;13.952;100.608;2023-01-19T22:55:46;35.00;;;27.00;;
37169;SDS011;23062;13.952;100.608;2023-01-19T23:00:11;33.00;;;25.00;;
37169;SDS011;23062;13.952;100.608;2023-01-19T23:04:37;38.00;;;29.00;;
37169;SDS011;23062;13.952;100.608;2023-01-19T23:09:05;36.00;;;27.00;;
37169;SDS011;23062;13.952;100.608;2023-01-19T23:13:28;36.00;;;28.00;;
37169;SDS011;23062;13.952;100.608;2023-01-19T23:17:53;41.00;;;32.00;;
37169;SDS011;23062;13.952;100.608;2023-01-19T23:22:18;40.00;;;31.00;;
37169;SDS011;23062;13.952;100.608;2023-01-19T23:26:43;42.00;;;32.00;;
37169;SDS011;23062;13.952;100.608;2023-01-19T23:31:18;44.00;;;33.00;;
37169;SDS011;23062;13.952;100.608;2023-01-19T23:35:47;43.00;;;32.00;;
37169;SDS011;23062;13.952;100.608;2023-01-19T23:40:12;39.00;;;30.00;;
37169;SDS011;23062;13.952;100.608;2023-01-19T23:44:37;44.00;;;33.00;;
37169;SDS011;23062;13.952;100.608;2023-01-19T23:49:09;39.00;;;29.00;;
37169;SDS011;23062;13.952;100.608;2023-01-19T23:53:35;38.00;;;28.00;;
37169;SDS011;23062;13.952;100.608;2023-01-19T23:58:00;35.00;;;27.00;;
